sensor_id;sensor_type;location;lat;lon;timestamp;temperature;humidity
29353;DHT22;16344;50.364;8.944;2023-06-22T00:02:25;24.20;1.00
29353;DHT22;16344;50.364;8.944;2023-06-22T00:04:50;24.20;1.00
29353;DHT22;16344;50.364;8.944;2023-06-22T00:07:16;24.20;1.00
29353;DHT22;16344;50.364;8.944;2023-06-22T00:09:41;24.10;1.00
29353;DHT22;16344;50.364;8.944;2023-06-22T00:12:07;24.10;1.00
29353;DHT22;16344;50.364;8.944;2023-06-22T00:14:33;23.90;1.00
29353;DHT22;16344;50.364;8.944;2023-06-22T00:16:58;23.70;1.00
29353;DHT22;16344;50.364;8.944;2023-06-22T00:19:24;23.60;1.00
29353;DHT22;16344;50.364;8.944;2023-06-22T00:21:50;23.50;1.00
29353;DHT22;16344;50.364;8.944;2023-06-22T00:24:20;23.50;1.00
29353;DHT22;16344;50.364;8.944;2023-06-22T00:26:47;23.50;1.00
29353;DHT22;16344;50.364;8.944;2023-06-22T00:29:13;23.50;1.00
29353;DHT22;16344;50.364;8.944;2023-06-22T00:31:38;23.30;1.00
29353;DHT22;16344;50.364;8.944;2023-06-22T00:34:04;23.30;1.00
29353;DHT22;16344;50.364;8.944;2023-06-22T00:36:32;23.20;1.00
29353;DHT22;16344;50.364;8.944;2023-06-22T00:38:57;23.30;1.00
29353;DHT22;16344;50.364;8.944;2023-06-22T00:41:23;23.30;1.00
29353;DHT22;16344;50.364;8.944;2023-06-22T00:43:48;23.40;1.00
29353;DHT22;16344;50.364;8.944;2023-06-22T00:46:14;23.50;1.00
29353;DHT22;16344;50.364;8.944;2023-06-22T00:48:40;23.60;1.00
29353;DHT22;16344;50.364;8.944;2023-06-22T00:51:10;23.60;1.00
29353;DHT22;16344;50.364;8.944;2023-06-22T00:53:36;23.70;1.00
29353;DHT22;16344;50.364;8.944;2023-06-22T00:56:02;23.80;1.00
29353;DHT22;16344;50.364;8.944;2023-06-22T00:58:29;23.80;1.00
29353;DHT22;16344;50.364;8.944;2023-06-22T01:00:54;23.90;1.00
29353;DHT22;16344;50.364;8.944;2023-06-22T01:03:20;24.00;1.00
29353;DHT22;16344;50.364;8.944;2023-06-22T01:05:46;24.00;1.00
29353;DHT22;16344;50.364;8.944;2023-06-22T01:08:44;24.00;1.00
29353;DHT22;16344;50.364;8.944;2023-06-22T01:11:26;23.90;1.00
29353;DHT22;16344;50.364;8.944;2023-06-22T01:14:14;23.80;1.00
29353;DHT22;16344;50.364;8.944;2023-06-22T01:16:41;23.50;1.00
29353;DHT22;16344;50.364;8.944;2023-06-22T01:22:05;23.40;1.00
29353;DHT22;16344;50.364;8.944;2023-06-22T01:27:45;23.20;1.00
29353;DHT22;16344;50.364;8.944;2023-06-22T01:30:14;23.10;1.00
29353;DHT22;16344;50.364;8.944;2023-06-22T01:32:41;23.10;8.30
29353;DHT22;16344;50.364;8.944;2023-06-22T01:35:08;23.10;12.10
29353;DHT22;16344;50.364;8.944;2023-06-22T01:37:35;23.20;9.70
29353;DHT22;16344;50.364;8.944;2023-06-22T01:40:02;23.20;56.60
29353;DHT22;16344;50.364;8.944;2023-06-22T01:42:31;23.20;99.90
29353;DHT22;16344;50.364;8.944;2023-06-22T01:44:58;23.10;99.90
29353;DHT22;16344;50.364;8.944;2023-06-22T01:47:24;23.10;99.90
29353;DHT22;16344;50.364;8.944;2023-06-22T01:49:51;23.10;99.90
29353;DHT22;16344;50.364;8.944;2023-06-22T01:52:17;23.00;99.90
29353;DHT22;16344;50.364;8.944;2023-06-22T01:54:43;22.90;99.90
29353;DHT22;16344;50.364;8.944;2023-06-22T01:57:08;22.70;99.90
29353;DHT22;16344;50.364;8.944;2023-06-22T01:59:39;22.50;99.90
29353;DHT22;16344;50.364;8.944;2023-06-22T02:02:10;22.30;99.90
29353;DHT22;16344;50.364;8.944;2023-06-22T02:05:01;22.30;99.90
29353;DHT22;16344;50.364;8.944;2023-06-22T02:07:32;22.10;99.90
29353;DHT22;16344;50.364;8.944;2023-06-22T02:09:59;22.00;99.90
29353;DHT22;16344;50.364;8.944;2023-06-22T02:12:28;21.90;99.90
29353;DHT22;16344;50.364;8.944;2023-06-22T02:14:56;21.80;99.90
29353;DHT22;16344;50.364;8.944;2023-06-22T02:17:23;21.80;1.00
29353;DHT22;16344;50.364;8.944;2023-06-22T02:19:49;21.70;1.00
29353;DHT22;16344;50.364;8.944;2023-06-22T02:22:15;21.80;1.00
29353;DHT22;16344;50.364;8.944;2023-06-22T02:24:40;21.80;1.00
29353;DHT22;16344;50.364;8.944;2023-06-22T02:27:06;21.80;1.00
29353;DHT22;16344;50.364;8.944;2023-06-22T02:29:32;21.80;1.00
29353;DHT22;16344;50.364;8.944;2023-06-22T02:31:58;21.80;1.00
29353;DHT22;16344;50.364;8.944;2023-06-22T02:34:24;21.90;1.00
29353;DHT22;16344;50.364;8.944;2023-06-22T02:36:50;21.90;99.90
29353;DHT22;16344;50.364;8.944;2023-06-22T02:39:25;21.80;99.90
29353;DHT22;16344;50.364;8.944;2023-06-22T02:41:52;21.80;99.90
29353;DHT22;16344;50.364;8.944;2023-06-22T02:44:19;21.70;99.90
29353;DHT22;16344;50.364;8.944;2023-06-22T02:46:45;21.80;1.00
29353;DHT22;16344;50.364;8.944;2023-06-22T02:49:10;21.80;1.00
29353;DHT22;16344;50.364;8.944;2023-06-22T02:51:38;21.70;99.90
29353;DHT22;16344;50.364;8.944;2023-06-22T02:54:07;21.60;1.00
29353;DHT22;16344;50.364;8.944;2023-06-22T02:56:33;21.60;1.00
29353;DHT22;16344;50.364;8.944;2023-06-22T02:58:58;21.70;1.00
29353;DHT22;16344;50.364;8.944;2023-06-22T03:01:27;21.60;1.00
29353;DHT22;16344;50.364;8.944;2023-06-22T03:03:53;21.60;1.00
29353;DHT22;16344;50.364;8.944;2023-06-22T03:06:20;21.70;1.00
29353;DHT22;16344;50.364;8.944;2023-06-22T03:08:49;21.80;1.00
29353;DHT22;16344;50.364;8.944;2023-06-22T03:11:15;21.80;1.00
29353;DHT22;16344;50.364;8.944;2023-06-22T03:13:41;21.80;1.00
29353;DHT22;16344;50.364;8.944;2023-06-22T03:16:06;21.90;1.00
29353;DHT22;16344;50.364;8.944;2023-06-22T03:18:32;21.90;1.00
29353;DHT22;16344;50.364;8.944;2023-06-22T03:20:57;21.90;1.00
29353;DHT22;16344;50.364;8.944;2023-06-22T03:23:23;22.00;1.00
29353;DHT22;16344;50.364;8.944;2023-06-22T03:25:48;21.90;1.00
29353;DHT22;16344;50.364;8.944;2023-06-22T03:28:14;21.80;1.00
29353;DHT22;16344;50.364;8.944;2023-06-22T03:30:39;21.90;1.00
29353;DHT22;16344;50.364;8.944;2023-06-22T03:33:05;22.00;1.00
29353;DHT22;16344;50.364;8.944;2023-06-22T03:35:30;22.10;1.00
29353;DHT22;16344;50.364;8.944;2023-06-22T03:37:56;22.10;1.00
29353;DHT22;16344;50.364;8.944;2023-06-22T03:40:21;22.20;99.90
29353;DHT22;16344;50.364;8.944;2023-06-22T03:42:47;22.20;1.00
29353;DHT22;16344;50.364;8.944;2023-06-22T03:45:12;22.20;1.00
29353;DHT22;16344;50.364;8.944;2023-06-22T03:47:38;22.10;1.00
29353;DHT22;16344;50.364;8.944;2023-06-22T03:50:04;22.10;1.00
29353;DHT22;16344;50.364;8.944;2023-06-22T03:52:31;22.20;1.00
29353;DHT22;16344;50.364;8.944;2023-06-22T03:54:57;22.20;1.00
29353;DHT22;16344;50.364;8.944;2023-06-22T03:57:22;22.20;1.00
29353;DHT22;16344;50.364;8.944;2023-06-22T03:59:49;22.20;1.00
29353;DHT22;16344;50.364;8.944;2023-06-22T04:02:15;22.10;1.00
29353;DHT22;16344;50.364;8.944;2023-06-22T04:04:40;22.10;1.00
29353;DHT22;16344;50.364;8.944;2023-06-22T04:07:06;22.00;1.00
29353;DHT22;16344;50.364;8.944;2023-06-22T04:09:31;22.00;1.00
29353;DHT22;16344;50.364;8.944;2023-06-22T04:11:57;22.10;1.00
29353;DHT22;16344;50.364;8.944;2023-06-22T04:14:22;22.00;1.00
29353;DHT22;16344;50.364;8.944;2023-06-22T04:16:48;22.00;1.00
29353;DHT22;16344;50.364;8.944;2023-06-22T04:19:13;22.00;1.00
29353;DHT22;16344;50.364;8.944;2023-06-22T04:21:43;22.00;1.00
29353;DHT22;16344;50.364;8.944;2023-06-22T04:24:10;22.00;1.00
29353;DHT22;16344;50.364;8.944;2023-06-22T04:26:35;22.10;1.00
29353;DHT22;16344;50.364;8.944;2023-06-22T04:29:03;22.10;1.00
29353;DHT22;16344;50.364;8.944;2023-06-22T04:31:34;22.20;1.00
29353;DHT22;16344;50.364;8.944;2023-06-22T04:34:03;22.30;1.00
29353;DHT22;16344;50.364;8.944;2023-06-22T04:36:41;22.40;99.90
29353;DHT22;16344;50.364;8.944;2023-06-22T04:39:09;22.20;1.00
29353;DHT22;16344;50.364;8.944;2023-06-22T04:41:40;22.20;1.00
29353;DHT22;16344;50.364;8.944;2023-06-22T04:44:18;22.20;1.00
29353;DHT22;16344;50.364;8.944;2023-06-22T04:46:50;22.20;1.00
29353;DHT22;16344;50.364;8.944;2023-06-22T04:49:20;22.20;1.00
29353;DHT22;16344;50.364;8.944;2023-06-22T04:51:46;22.20;1.00
29353;DHT22;16344;50.364;8.944;2023-06-22T04:54:12;22.20;1.00
29353;DHT22;16344;50.364;8.944;2023-06-22T04:56:37;22.30;1.00
29353;DHT22;16344;50.364;8.944;2023-06-22T04:59:06;22.30;1.00
29353;DHT22;16344;50.364;8.944;2023-06-22T05:01:31;22.40;1.00
29353;DHT22;16344;50.364;8.944;2023-06-22T05:03:57;22.70;1.00
29353;DHT22;16344;50.364;8.944;2023-06-22T05:06:26;22.70;1.00
29353;DHT22;16344;50.364;8.944;2023-06-22T05:08:53;22.70;1.00
29353;DHT22;16344;50.364;8.944;2023-06-22T05:11:26;22.70;1.00
29353;DHT22;16344;50.364;8.944;2023-06-22T05:13:52;22.70;1.00
29353;DHT22;16344;50.364;8.944;2023-06-22T05:16:18;22.60;1.00
29353;DHT22;16344;50.364;8.944;2023-06-22T05:18:55;22.40;1.00
29353;DHT22;16344;50.364;8.944;2023-06-22T05:21:23;22.50;1.00
29353;DHT22;16344;50.364;8.944;2023-06-22T05:23:49;22.40;1.00
29353;DHT22;16344;50.364;8.944;2023-06-22T05:26:14;22.40;1.00
29353;DHT22;16344;50.364;8.944;2023-06-22T05:28:40;22.50;1.00
29353;DHT22;16344;50.364;8.944;2023-06-22T05:31:05;22.70;1.00
29353;DHT22;16344;50.364;8.944;2023-06-22T05:33:31;23.10;1.00
29353;DHT22;16344;50.364;8.944;2023-06-22T05:35:56;23.50;99.90
29353;DHT22;16344;50.364;8.944;2023-06-22T05:38:22;23.90;99.90
29353;DHT22;16344;50.364;8.944;2023-06-22T05:40:47;24.20;99.90
29353;DHT22;16344;50.364;8.944;2023-06-22T05:43:13;24.20;99.90
29353;DHT22;16344;50.364;8.944;2023-06-22T05:45:38;24.30;99.90
29353;DHT22;16344;50.364;8.944;2023-06-22T05:48:05;24.30;99.90
29353;DHT22;16344;50.364;8.944;2023-06-22T05:50:30;24.50;99.90
29353;DHT22;16344;50.364;8.944;2023-06-22T05:52:56;25.00;99.90
29353;DHT22;16344;50.364;8.944;2023-06-22T05:55:21;26.00;97.80
29353;DHT22;16344;50.364;8.944;2023-06-22T05:57:47;26.70;1.00
29353;DHT22;16344;50.364;8.944;2023-06-22T06:00:13;27.20;1.00
29353;DHT22;16344;50.364;8.944;2023-06-22T06:02:39;27.60;1.00
29353;DHT22;16344;50.364;8.944;2023-06-22T06:05:10;27.70;1.00
29353;DHT22;16344;50.364;8.944;2023-06-22T06:07:36;27.50;1.00
29353;DHT22;16344;50.364;8.944;2023-06-22T06:10:03;27.40;1.00
29353;DHT22;16344;50.364;8.944;2023-06-22T06:12:29;27.20;1.00
29353;DHT22;16344;50.364;8.944;2023-06-22T06:14:55;27.30;1.00
29353;DHT22;16344;50.364;8.944;2023-06-22T06:17:21;27.30;1.00
29353;DHT22;16344;50.364;8.944;2023-06-22T06:19:47;27.60;1.00
29353;DHT22;16344;50.364;8.944;2023-06-22T06:22:12;27.80;1.00
29353;DHT22;16344;50.364;8.944;2023-06-22T06:24:38;27.90;1.00
29353;DHT22;16344;50.364;8.944;2023-06-22T06:27:04;27.80;1.00
29353;DHT22;16344;50.364;8.944;2023-06-22T06:29:30;28.10;1.00
29353;DHT22;16344;50.364;8.944;2023-06-22T06:31:56;28.40;1.00
29353;DHT22;16344;50.364;8.944;2023-06-22T06:34:22;28.70;1.00
29353;DHT22;16344;50.364;8.944;2023-06-22T06:36:47;29.10;1.00
29353;DHT22;16344;50.364;8.944;2023-06-22T06:39:13;29.50;1.00
29353;DHT22;16344;50.364;8.944;2023-06-22T06:41:38;29.80;1.00
29353;DHT22;16344;50.364;8.944;2023-06-22T06:44:04;30.10;1.00
29353;DHT22;16344;50.364;8.944;2023-06-22T06:46:29;30.20;1.00
29353;DHT22;16344;50.364;8.944;2023-06-22T06:48:55;30.50;1.00
29353;DHT22;16344;50.364;8.944;2023-06-22T06:51:20;30.70;1.00
29353;DHT22;16344;50.364;8.944;2023-06-22T06:53:46;30.70;1.00
29353;DHT22;16344;50.364;8.944;2023-06-22T06:56:11;30.60;1.00
29353;DHT22;16344;50.364;8.944;2023-06-22T06:58:40;30.70;1.00
29353;DHT22;16344;50.364;8.944;2023-06-22T07:01:06;30.60;1.00
29353;DHT22;16344;50.364;8.944;2023-06-22T07:03:31;30.50;1.00
29353;DHT22;16344;50.364;8.944;2023-06-22T07:05:58;30.60;1.00
29353;DHT22;16344;50.364;8.944;2023-06-22T07:08:24;31.00;1.00
29353;DHT22;16344;50.364;8.944;2023-06-22T07:10:49;31.30;1.00
29353;DHT22;16344;50.364;8.944;2023-06-22T07:13:15;31.60;1.00
29353;DHT22;16344;50.364;8.944;2023-06-22T07:15:41;31.70;1.00
29353;DHT22;16344;50.364;8.944;2023-06-22T07:18:07;31.70;1.00
29353;DHT22;16344;50.364;8.944;2023-06-22T07:20:32;31.10;1.00
29353;DHT22;16344;50.364;8.944;2023-06-22T07:22:58;30.70;1.00
29353;DHT22;16344;50.364;8.944;2023-06-22T07:25:23;31.00;1.00
29353;DHT22;16344;50.364;8.944;2023-06-22T07:28:00;31.20;1.00
29353;DHT22;16344;50.364;8.944;2023-06-22T07:30:27;31.30;1.00
29353;DHT22;16344;50.364;8.944;2023-06-22T07:32:53;31.30;1.00
29353;DHT22;16344;50.364;8.944;2023-06-22T07:35:19;31.50;1.00
29353;DHT22;16344;50.364;8.944;2023-06-22T07:37:44;31.70;1.00
29353;DHT22;16344;50.364;8.944;2023-06-22T07:40:11;31.70;1.00
29353;DHT22;16344;50.364;8.944;2023-06-22T07:42:36;31.50;1.00
29353;DHT22;16344;50.364;8.944;2023-06-22T07:45:03;31.80;1.00
29353;DHT22;16344;50.364;8.944;2023-06-22T07:47:29;32.00;1.00
29353;DHT22;16344;50.364;8.944;2023-06-22T07:49:58;32.20;1.00
29353;DHT22;16344;50.364;8.944;2023-06-22T07:52:26;32.20;1.00
29353;DHT22;16344;50.364;8.944;2023-06-22T07:54:52;32.10;1.00
29353;DHT22;16344;50.364;8.944;2023-06-22T07:57:17;32.30;1.00
29353;DHT22;16344;50.364;8.944;2023-06-22T07:59:44;31.60;1.00
29353;DHT22;16344;50.364;8.944;2023-06-22T08:02:09;31.50;1.00
29353;DHT22;16344;50.364;8.944;2023-06-22T08:04:35;31.60;1.00
29353;DHT22;16344;50.364;8.944;2023-06-22T08:07:01;31.60;1.00
29353;DHT22;16344;50.364;8.944;2023-06-22T08:09:31;31.90;1.00
29353;DHT22;16344;50.364;8.944;2023-06-22T08:11:57;31.70;1.00
29353;DHT22;16344;50.364;8.944;2023-06-22T08:14:27;31.60;1.00
29353;DHT22;16344;50.364;8.944;2023-06-22T08:16:52;31.30;1.00
29353;DHT22;16344;50.364;8.944;2023-06-22T08:19:18;31.20;1.00
29353;DHT22;16344;50.364;8.944;2023-06-22T08:21:43;31.30;1.00
29353;DHT22;16344;50.364;8.944;2023-06-22T08:24:09;31.60;1.00
29353;DHT22;16344;50.364;8.944;2023-06-22T08:26:34;31.80;1.00
29353;DHT22;16344;50.364;8.944;2023-06-22T08:29:05;31.90;1.00
29353;DHT22;16344;50.364;8.944;2023-06-22T08:31:31;32.00;1.00
29353;DHT22;16344;50.364;8.944;2023-06-22T08:33:58;31.70;1.00
29353;DHT22;16344;50.364;8.944;2023-06-22T08:36:24;31.10;1.00
29353;DHT22;16344;50.364;8.944;2023-06-22T08:38:49;31.50;1.00
29353;DHT22;16344;50.364;8.944;2023-06-22T08:41:17;31.90;1.00
29353;DHT22;16344;50.364;8.944;2023-06-22T08:43:43;32.20;1.00
29353;DHT22;16344;50.364;8.944;2023-06-22T08:46:10;32.20;1.00
29353;DHT22;16344;50.364;8.944;2023-06-22T08:48:36;32.10;1.00
29353;DHT22;16344;50.364;8.944;2023-06-22T08:51:02;31.90;1.00
29353;DHT22;16344;50.364;8.944;2023-06-22T08:53:28;31.80;1.00
29353;DHT22;16344;50.364;8.944;2023-06-22T08:55:54;31.80;1.00
29353;DHT22;16344;50.364;8.944;2023-06-22T08:58:19;32.10;1.00
29353;DHT22;16344;50.364;8.944;2023-06-22T09:00:46;32.30;1.00
29353;DHT22;16344;50.364;8.944;2023-06-22T09:03:12;32.30;1.00
29353;DHT22;16344;50.364;8.944;2023-06-22T09:05:38;32.20;1.00
29353;DHT22;16344;50.364;8.944;2023-06-22T09:08:04;32.00;1.00
29353;DHT22;16344;50.364;8.944;2023-06-22T09:10:29;31.50;1.00
29353;DHT22;16344;50.364;8.944;2023-06-22T09:12:55;31.50;1.00
29353;DHT22;16344;50.364;8.944;2023-06-22T09:15:20;30.90;1.00
29353;DHT22;16344;50.364;8.944;2023-06-22T09:17:46;31.30;1.00
29353;DHT22;16344;50.364;8.944;2023-06-22T09:20:12;31.50;1.00
29353;DHT22;16344;50.364;8.944;2023-06-22T09:22:37;31.00;1.00
29353;DHT22;16344;50.364;8.944;2023-06-22T09:25:04;30.60;1.00
29353;DHT22;16344;50.364;8.944;2023-06-22T09:27:30;30.30;1.00
29353;DHT22;16344;50.364;8.944;2023-06-22T09:29:55;29.70;1.00
29353;DHT22;16344;50.364;8.944;2023-06-22T09:32:21;29.90;1.00
29353;DHT22;16344;50.364;8.944;2023-06-22T09:34:46;30.30;1.00
29353;DHT22;16344;50.364;8.944;2023-06-22T09:37:12;30.50;1.00
29353;DHT22;16344;50.364;8.944;2023-06-22T09:39:37;30.50;1.00
29353;DHT22;16344;50.364;8.944;2023-06-22T09:42:03;30.50;1.00
29353;DHT22;16344;50.364;8.944;2023-06-22T09:44:30;30.70;1.00
29353;DHT22;16344;50.364;8.944;2023-06-22T09:46:56;30.50;1.00
29353;DHT22;16344;50.364;8.944;2023-06-22T09:49:22;30.30;1.00
29353;DHT22;16344;50.364;8.944;2023-06-22T09:51:47;30.20;1.00
29353;DHT22;16344;50.364;8.944;2023-06-22T09:54:15;29.80;1.00
29353;DHT22;16344;50.364;8.944;2023-06-22T09:56:40;29.90;1.00
29353;DHT22;16344;50.364;8.944;2023-06-22T09:59:06;30.00;1.00
29353;DHT22;16344;50.364;8.944;2023-06-22T10:01:31;29.60;1.00
29353;DHT22;16344;50.364;8.944;2023-06-22T10:03:57;29.50;1.00
29353;DHT22;16344;50.364;8.944;2023-06-22T10:06:23;29.80;1.00
29353;DHT22;16344;50.364;8.944;2023-06-22T10:08:50;30.30;1.00
29353;DHT22;16344;50.364;8.944;2023-06-22T10:11:16;30.30;1.00
29353;DHT22;16344;50.364;8.944;2023-06-22T10:13:42;30.30;1.00
29353;DHT22;16344;50.364;8.944;2023-06-22T10:16:07;30.30;1.00
29353;DHT22;16344;50.364;8.944;2023-06-22T10:18:33;30.40;1.00
29353;DHT22;16344;50.364;8.944;2023-06-22T10:21:00;30.60;1.00
29353;DHT22;16344;50.364;8.944;2023-06-22T10:23:25;31.00;1.00
29353;DHT22;16344;50.364;8.944;2023-06-22T10:25:51;30.90;1.00
29353;DHT22;16344;50.364;8.944;2023-06-22T10:28:16;30.90;1.00
29353;DHT22;16344;50.364;8.944;2023-06-22T10:30:42;31.00;1.00
29353;DHT22;16344;50.364;8.944;2023-06-22T10:33:09;31.00;1.00
29353;DHT22;16344;50.364;8.944;2023-06-22T10:35:35;30.70;1.00
29353;DHT22;16344;50.364;8.944;2023-06-22T10:38:03;30.50;1.00
29353;DHT22;16344;50.364;8.944;2023-06-22T10:40:28;30.60;1.00
29353;DHT22;16344;50.364;8.944;2023-06-22T10:42:54;30.70;1.00
29353;DHT22;16344;50.364;8.944;2023-06-22T10:45:19;30.80;1.00
29353;DHT22;16344;50.364;8.944;2023-06-22T10:47:45;30.50;1.00
29353;DHT22;16344;50.364;8.944;2023-06-22T10:50:10;30.40;1.00
29353;DHT22;16344;50.364;8.944;2023-06-22T10:52:36;30.60;1.00
29353;DHT22;16344;50.364;8.944;2023-06-22T10:55:02;30.70;1.00
29353;DHT22;16344;50.364;8.944;2023-06-22T10:57:28;30.60;1.00
29353;DHT22;16344;50.364;8.944;2023-06-22T10:59:53;30.60;1.00
29353;DHT22;16344;50.364;8.944;2023-06-22T11:02:19;30.30;1.00
29353;DHT22;16344;50.364;8.944;2023-06-22T11:04:44;30.20;1.00
29353;DHT22;16344;50.364;8.944;2023-06-22T11:07:11;30.20;1.00
29353;DHT22;16344;50.364;8.944;2023-06-22T11:09:36;30.30;1.00
29353;DHT22;16344;50.364;8.944;2023-06-22T11:12:04;30.40;1.00
29353;DHT22;16344;50.364;8.944;2023-06-22T11:14:29;30.60;1.00
29353;DHT22;16344;50.364;8.944;2023-06-22T11:16:55;30.90;1.00
29353;DHT22;16344;50.364;8.944;2023-06-22T11:19:21;31.10;1.00
29353;DHT22;16344;50.364;8.944;2023-06-22T11:21:47;31.00;1.00
29353;DHT22;16344;50.364;8.944;2023-06-22T11:24:12;31.10;1.00
29353;DHT22;16344;50.364;8.944;2023-06-22T11:26:38;31.10;99.90
29353;DHT22;16344;50.364;8.944;2023-06-22T11:29:03;31.20;1.00
29353;DHT22;16344;50.364;8.944;2023-06-22T11:31:31;31.00;1.00
29353;DHT22;16344;50.364;8.944;2023-06-22T11:33:57;31.20;1.00
29353;DHT22;16344;50.364;8.944;2023-06-22T11:36:22;31.20;1.00
29353;DHT22;16344;50.364;8.944;2023-06-22T11:38:48;31.00;1.00
29353;DHT22;16344;50.364;8.944;2023-06-22T11:41:13;31.00;1.00
29353;DHT22;16344;50.364;8.944;2023-06-22T11:43:39;31.00;99.90
29353;DHT22;16344;50.364;8.944;2023-06-22T11:46:04;31.00;99.90
29353;DHT22;16344;50.364;8.944;2023-06-22T11:48:30;31.20;99.90
29353;DHT22;16344;50.364;8.944;2023-06-22T11:50:56;31.50;99.90
29353;DHT22;16344;50.364;8.944;2023-06-22T11:53:24;31.40;99.90
29353;DHT22;16344;50.364;8.944;2023-06-22T11:55:49;31.40;99.90
29353;DHT22;16344;50.364;8.944;2023-06-22T11:58:15;31.50;99.90
29353;DHT22;16344;50.364;8.944;2023-06-22T12:00:40;31.30;99.90
29353;DHT22;16344;50.364;8.944;2023-06-22T12:03:07;31.30;1.00
29353;DHT22;16344;50.364;8.944;2023-06-22T12:05:33;31.40;1.00
29353;DHT22;16344;50.364;8.944;2023-06-22T12:07:58;31.90;99.90
29353;DHT22;16344;50.364;8.944;2023-06-22T12:10:25;31.80;99.90
29353;DHT22;16344;50.364;8.944;2023-06-22T12:12:51;31.70;99.90
29353;DHT22;16344;50.364;8.944;2023-06-22T12:15:17;31.70;99.90
29353;DHT22;16344;50.364;8.944;2023-06-22T12:17:42;31.90;99.90
29353;DHT22;16344;50.364;8.944;2023-06-22T12:20:08;32.10;99.90
29353;DHT22;16344;50.364;8.944;2023-06-22T12:22:34;32.10;99.90
29353;DHT22;16344;50.364;8.944;2023-06-22T12:25:00;32.10;99.90
29353;DHT22;16344;50.364;8.944;2023-06-22T12:27:26;32.10;99.90
29353;DHT22;16344;50.364;8.944;2023-06-22T12:29:52;31.90;99.90
29353;DHT22;16344;50.364;8.944;2023-06-22T12:32:18;31.70;99.90
29353;DHT22;16344;50.364;8.944;2023-06-22T12:34:44;32.20;99.90
29353;DHT22;16344;50.364;8.944;2023-06-22T12:37:10;32.30;99.90
29353;DHT22;16344;50.364;8.944;2023-06-22T12:39:35;32.50;99.90
29353;DHT22;16344;50.364;8.944;2023-06-22T12:42:01;32.10;99.90
29353;DHT22;16344;50.364;8.944;2023-06-22T12:44:26;31.70;99.90
29353;DHT22;16344;50.364;8.944;2023-06-22T12:46:52;31.70;99.90
29353;DHT22;16344;50.364;8.944;2023-06-22T12:49:18;32.00;99.90
29353;DHT22;16344;50.364;8.944;2023-06-22T12:51:44;32.40;99.90
29353;DHT22;16344;50.364;8.944;2023-06-22T12:54:10;32.50;99.90
29353;DHT22;16344;50.364;8.944;2023-06-22T12:56:35;32.60;99.90
29353;DHT22;16344;50.364;8.944;2023-06-22T12:59:01;32.80;99.90
29353;DHT22;16344;50.364;8.944;2023-06-22T13:01:27;33.00;99.90
29353;DHT22;16344;50.364;8.944;2023-06-22T13:03:53;33.00;99.90
29353;DHT22;16344;50.364;8.944;2023-06-22T13:06:19;32.80;99.90
29353;DHT22;16344;50.364;8.944;2023-06-22T13:08:45;32.50;99.90
29353;DHT22;16344;50.364;8.944;2023-06-22T13:11:10;32.50;99.90
29353;DHT22;16344;50.364;8.944;2023-06-22T13:13:36;32.80;99.90
29353;DHT22;16344;50.364;8.944;2023-06-22T13:16:01;32.90;99.90
29353;DHT22;16344;50.364;8.944;2023-06-22T13:18:27;32.70;99.90
29353;DHT22;16344;50.364;8.944;2023-06-22T13:20:53;32.30;99.90
29353;DHT22;16344;50.364;8.944;2023-06-22T13:23:22;32.00;99.90
29353;DHT22;16344;50.364;8.944;2023-06-22T13:25:48;32.00;99.90
29353;DHT22;16344;50.364;8.944;2023-06-22T13:28:14;31.90;99.90
29353;DHT22;16344;50.364;8.944;2023-06-22T13:30:41;31.80;99.90
29353;DHT22;16344;50.364;8.944;2023-06-22T13:33:07;32.00;99.90
29353;DHT22;16344;50.364;8.944;2023-06-22T13:35:33;32.20;99.90
29353;DHT22;16344;50.364;8.944;2023-06-22T13:38:00;32.30;99.90
29353;DHT22;16344;50.364;8.944;2023-06-22T13:40:26;32.40;99.90
29353;DHT22;16344;50.364;8.944;2023-06-22T13:42:51;32.20;99.90
29353;DHT22;16344;50.364;8.944;2023-06-22T13:45:17;32.20;99.90
29353;DHT22;16344;50.364;8.944;2023-06-22T13:47:44;32.10;99.90
29353;DHT22;16344;50.364;8.944;2023-06-22T13:50:09;32.10;99.90
29353;DHT22;16344;50.364;8.944;2023-06-22T13:52:35;32.20;99.90
29353;DHT22;16344;50.364;8.944;2023-06-22T13:55:02;32.10;99.90
29353;DHT22;16344;50.364;8.944;2023-06-22T13:57:27;32.20;99.90
29353;DHT22;16344;50.364;8.944;2023-06-22T13:59:53;32.40;99.90
29353;DHT22;16344;50.364;8.944;2023-06-22T14:02:18;32.60;99.90
29353;DHT22;16344;50.364;8.944;2023-06-22T14:04:44;31.90;99.90
29353;DHT22;16344;50.364;8.944;2023-06-22T14:07:09;31.90;99.90
29353;DHT22;16344;50.364;8.944;2023-06-22T14:09:35;31.90;99.90
29353;DHT22;16344;50.364;8.944;2023-06-22T14:12:05;31.70;99.90
29353;DHT22;16344;50.364;8.944;2023-06-22T14:14:32;31.60;99.90
29353;DHT22;16344;50.364;8.944;2023-06-22T14:16:58;31.40;99.90
29353;DHT22;16344;50.364;8.944;2023-06-22T14:19:24;31.40;99.90
29353;DHT22;16344;50.364;8.944;2023-06-22T14:21:50;31.30;99.90
29353;DHT22;16344;50.364;8.944;2023-06-22T14:24:15;31.40;99.90
29353;DHT22;16344;50.364;8.944;2023-06-22T14:26:41;31.50;99.90
29353;DHT22;16344;50.364;8.944;2023-06-22T14:29:06;31.60;99.90
29353;DHT22;16344;50.364;8.944;2023-06-22T14:31:32;31.20;99.90
29353;DHT22;16344;50.364;8.944;2023-06-22T14:33:58;31.00;99.90
29353;DHT22;16344;50.364;8.944;2023-06-22T14:36:23;31.10;1.00
29353;DHT22;16344;50.364;8.944;2023-06-22T14:38:49;31.20;99.90
29353;DHT22;16344;50.364;8.944;2023-06-22T14:41:14;31.20;99.90
29353;DHT22;16344;50.364;8.944;2023-06-22T14:43:47;31.20;99.90
29353;DHT22;16344;50.364;8.944;2023-06-22T14:46:17;31.00;1.00
29353;DHT22;16344;50.364;8.944;2023-06-22T14:48:43;30.90;1.00
29353;DHT22;16344;50.364;8.944;2023-06-22T14:51:09;30.80;1.00
29353;DHT22;16344;50.364;8.944;2023-06-22T14:53:36;30.70;1.00
29353;DHT22;16344;50.364;8.944;2023-06-22T14:56:02;30.70;1.00
29353;DHT22;16344;50.364;8.944;2023-06-22T14:58:31;30.80;1.00
29353;DHT22;16344;50.364;8.944;2023-06-22T15:01:03;30.80;1.00
29353;DHT22;16344;50.364;8.944;2023-06-22T15:03:31;30.60;1.00
29353;DHT22;16344;50.364;8.944;2023-06-22T15:06:00;30.60;1.00
29353;DHT22;16344;50.364;8.944;2023-06-22T15:08:25;30.50;1.00
29353;DHT22;16344;50.364;8.944;2023-06-22T15:10:51;30.60;1.00
29353;DHT22;16344;50.364;8.944;2023-06-22T15:13:17;30.80;1.00
29353;DHT22;16344;50.364;8.944;2023-06-22T15:15:44;30.80;99.90
29353;DHT22;16344;50.364;8.944;2023-06-22T15:18:09;30.60;99.90
29353;DHT22;16344;50.364;8.944;2023-06-22T15:20:35;30.70;1.00
29353;DHT22;16344;50.364;8.944;2023-06-22T15:23:00;30.80;1.00
29353;DHT22;16344;50.364;8.944;2023-06-22T15:25:26;30.80;1.00
29353;DHT22;16344;50.364;8.944;2023-06-22T15:27:51;30.80;1.00
29353;DHT22;16344;50.364;8.944;2023-06-22T15:30:17;30.80;1.00
29353;DHT22;16344;50.364;8.944;2023-06-22T15:32:44;30.90;1.00
29353;DHT22;16344;50.364;8.944;2023-06-22T15:35:10;31.10;99.90
29353;DHT22;16344;50.364;8.944;2023-06-22T15:37:36;31.10;1.00
29353;DHT22;16344;50.364;8.944;2023-06-22T15:40:01;31.00;1.00
29353;DHT22;16344;50.364;8.944;2023-06-22T15:42:28;31.00;1.00
29353;DHT22;16344;50.364;8.944;2023-06-22T15:44:53;30.90;99.90